Villa Marina, Puerto Rico
Current Conditions -  °F | °C
As of 11:56 PM on Sunday 23 Nov 2014 (Local Time) from TJSJ Reporting Station
Scattered Clouds Scattered Clouds  
Wind Chill: 80°   Ceiling: Unl
Heat Index: 85°   Visibility: 10mi
Dew Point: 74°   Wind: 10mph
Humidity: 81%   Direction: 80°E
Pressure: 30.01"   Gusts: NA
Location:  18.2551°N, 65.9776°W
Report Text: TJSJ 240356Z 08009KT 10SM FEW026 SCT035 SCT050 27/23 A3001 RMK AO2 SLP161 T02670233 403060239 $
Loading
Personal Weather Stations






























Interactive Weather Map New forecast layout! Learn more

10-Day Weather Forecast

Advertisements
Track Severe Weather on mobile